createdAt,value
2022-08-17T00:00:09.037Z,24.68
2022-08-17T00:03:01.850Z,24.69
2022-08-17T00:05:31.916Z,24.76
2022-08-17T00:07:59.626Z,24.72
2022-08-17T00:10:28.767Z,24.63
2022-08-17T00:13:00.481Z,24.69
2022-08-17T00:15:28.206Z,24.38
2022-08-17T00:17:55.842Z,24.51
2022-08-17T00:20:30.440Z,24.38
2022-08-17T00:23:13.360Z,24.54
2022-08-17T00:25:41.707Z,24.54
2022-08-17T00:28:09.053Z,24.48
2022-08-17T00:30:51.278Z,24.49
2022-08-17T00:33:24.693Z,24.33
2022-08-17T00:35:52.642Z,24.08
2022-08-17T00:38:21.550Z,23.79
2022-08-17T00:40:52.089Z,23.81
2022-08-17T00:43:30.979Z,23.63
2022-08-17T00:45:59.185Z,23.54
2022-08-17T00:48:30.000Z,23.65
2022-08-17T00:50:59.494Z,24.18
2022-08-17T00:53:30.267Z,24.24
2022-08-17T00:55:58.429Z,24.14
2022-08-17T00:58:36.369Z,24.05
2022-08-17T01:01:05.006Z,23.96
2022-08-17T01:03:33.362Z,24.23
2022-08-17T01:06:00.770Z,24.13
2022-08-17T01:08:29.334Z,23.89
2022-08-17T01:11:01.860Z,23.87
2022-08-17T01:13:41.734Z,24.07
2022-08-17T01:16:12.559Z,23.94
2022-08-17T01:18:40.555Z,23.80
2022-08-17T01:21:10.593Z,23.62
2022-08-17T01:23:38.496Z,23.79
2022-08-17T01:26:06.536Z,23.91
2022-08-17T01:28:53.394Z,23.90
2022-08-17T01:31:22.865Z,23.86
2022-08-17T01:33:50.198Z,23.99
2022-08-17T01:36:17.626Z,23.72
2022-08-17T01:38:45.236Z,23.80
2022-08-17T01:41:14.230Z,23.85
2022-08-17T01:43:44.063Z,23.69
2022-08-17T01:46:15.563Z,23.71
2022-08-17T01:48:43.824Z,23.73
2022-08-17T01:51:11.071Z,23.73
2022-08-17T01:53:41.596Z,23.67
2022-08-17T01:56:10.483Z,23.77
2022-08-17T01:58:38.978Z,23.63
2022-08-17T02:01:10.126Z,23.64
2022-08-17T02:03:38.173Z,23.50
2022-08-17T02:06:06.232Z,23.48
2022-08-17T02:09:02.340Z,23.50
2022-08-17T02:11:34.955Z,23.38
2022-08-17T02:14:04.061Z,23.49
2022-08-17T02:16:37.431Z,23.52
2022-08-17T02:19:06.931Z,23.36
2022-08-17T02:21:35.388Z,23.43
2022-08-17T02:24:03.153Z,23.51
2022-08-17T02:26:30.843Z,23.39
2022-08-17T02:28:58.225Z,23.16
2022-08-17T02:31:26.104Z,23.30
2022-08-17T02:34:00.383Z,23.21
2022-08-17T02:36:33.332Z,23.27
2022-08-17T02:39:02.071Z,23.37
2022-08-17T02:41:29.950Z,23.30
2022-08-17T02:43:57.642Z,23.16
2022-08-17T02:46:25.633Z,23.45
2022-08-17T02:48:53.501Z,23.05
2022-08-17T02:51:20.875Z,23.09
2022-08-17T02:53:48.561Z,23.17
2022-08-17T02:56:20.720Z,23.06
2022-08-17T02:58:49.249Z,23.00
2022-08-17T03:01:16.795Z,23.08
2022-08-17T03:03:44.363Z,22.93
2022-08-17T03:06:12.642Z,22.61
2022-08-17T03:08:41.326Z,22.62
2022-08-17T03:11:16.685Z,22.48
2022-08-17T03:13:44.443Z,22.68
2022-08-17T03:16:11.869Z,22.78
2022-08-17T03:18:39.253Z,22.63
2022-08-17T03:21:08.634Z,22.52
2022-08-17T03:23:41.164Z,22.60
2022-08-17T03:26:15.598Z,22.50
2022-08-17T03:28:43.759Z,22.54
2022-08-17T03:31:11.367Z,22.49
2022-08-17T03:33:39.000Z,22.55
2022-08-17T03:36:07.249Z,22.53
2022-08-17T03:38:38.918Z,22.53
2022-08-17T03:41:07.048Z,22.64
2022-08-17T03:43:34.872Z,22.69
2022-08-17T03:46:27.883Z,22.56
2022-08-17T03:49:16.369Z,22.63
2022-08-17T03:52:02.581Z,22.61
2022-08-17T03:54:48.881Z,22.48
2022-08-17T03:57:16.763Z,22.47
2022-08-17T03:59:45.098Z,22.54
2022-08-17T04:02:15.628Z,22.55
2022-08-17T04:04:43.526Z,22.38
2022-08-17T04:07:11.029Z,22.38
2022-08-17T04:09:38.777Z,22.32
2022-08-17T04:12:07.657Z,22.39
2022-08-17T04:14:53.169Z,22.26
2022-08-17T04:17:22.882Z,22.28
2022-08-17T04:19:50.249Z,22.56
2022-08-17T04:22:33.006Z,22.66
2022-08-17T04:25:07.584Z,22.78
2022-08-17T04:27:35.978Z,23.02
2022-08-17T04:30:04.642Z,22.77
2022-08-17T04:33:00.698Z,22.83
2022-08-17T04:35:24.525Z,22.82
2022-08-17T04:37:55.570Z,22.99
2022-08-17T04:40:45.891Z,23.00
2022-08-17T04:43:18.700Z,23.01
2022-08-17T04:45:51.254Z,23.24
2022-08-17T04:48:35.993Z,23.44
2022-08-17T04:51:06.300Z,23.61
2022-08-17T04:53:34.426Z,23.54
2022-08-17T04:56:02.097Z,23.66
2022-08-17T04:58:31.333Z,23.88
2022-08-17T05:00:59.124Z,23.98
2022-08-17T05:03:26.877Z,24.00
2022-08-17T05:05:55.425Z,23.94
2022-08-17T05:08:23.182Z,23.91
2022-08-17T05:10:50.898Z,24.16
2022-08-17T05:13:20.164Z,24.08
2022-08-17T05:15:52.537Z,24.48
2022-08-17T05:18:20.278Z,24.82
2022-08-17T05:20:47.612Z,24.86
2022-08-17T05:23:17.736Z,24.75
2022-08-17T05:25:47.898Z,25.08
2022-08-17T05:28:16.944Z,25.15
2022-08-17T05:30:53.686Z,25.19
2022-08-17T05:33:24.317Z,25.18
2022-08-17T05:35:55.459Z,25.22
2022-08-17T05:38:24.365Z,25.35
2022-08-17T05:40:58.332Z,25.45
2022-08-17T05:43:28.422Z,25.31
2022-08-17T05:45:59.576Z,25.54
2022-08-17T05:48:39.663Z,25.84
2022-08-17T05:51:44.646Z,25.70
2022-08-17T05:54:25.755Z,26.07
2022-08-17T05:57:00.645Z,26.22
2022-08-17T05:59:42.780Z,26.53
2022-08-17T06:02:35.524Z,26.72
2022-08-17T06:05:20.045Z,26.81
2022-08-17T06:07:57.312Z,27.04
2022-08-17T06:10:25.464Z,27.21
2022-08-17T06:13:08.559Z,27.22
2022-08-17T06:15:43.727Z,27.59
2022-08-17T06:18:17.255Z,27.48
2022-08-17T06:21:03.876Z,27.91
2022-08-17T06:23:36.620Z,28.03
2022-08-17T06:26:15.117Z,28.07
2022-08-17T06:31:49.143Z,28.50
2022-08-17T06:34:22.491Z,28.56
2022-08-17T06:36:53.247Z,28.83
2022-08-17T06:39:25.102Z,29.02
2022-08-17T06:42:00.875Z,29.25
2022-08-17T06:44:43.463Z,29.44
2022-08-17T06:47:28.495Z,29.41
2022-08-17T06:49:59.483Z,29.56
2022-08-17T06:52:42.315Z,29.70
2022-08-17T06:55:35.817Z,29.93
2022-08-17T06:58:16.423Z,30.13
2022-08-17T07:00:46.170Z,30.15
2022-08-17T07:03:33.570Z,30.14
2022-08-17T07:06:03.806Z,30.55
2022-08-17T07:08:43.054Z,30.66
2022-08-17T07:11:15.968Z,30.66
2022-08-17T07:13:57.389Z,30.72
2022-08-17T07:16:30.642Z,30.71
2022-08-17T07:19:00.084Z,30.54
2022-08-17T07:21:28.432Z,31.27
2022-08-17T07:24:01.638Z,31.56
2022-08-17T07:26:33.500Z,31.55
2022-08-17T07:29:01.939Z,31.46
2022-08-17T07:31:37.479Z,31.67
2022-08-17T07:34:11.310Z,31.95
2022-08-17T07:36:39.556Z,31.79
2022-08-17T07:39:12.697Z,32.11
2022-08-17T07:41:57.663Z,32.18
2022-08-17T07:44:31.215Z,32.26
2022-08-17T07:47:19.813Z,32.11
2022-08-17T07:49:47.584Z,32.43
2022-08-17T07:52:50.895Z,33.03
2022-08-17T07:55:35.067Z,33.14
2022-08-17T07:58:06.698Z,32.91
2022-08-17T08:00:34.554Z,33.10
2022-08-17T08:03:15.562Z,33.46
2022-08-17T08:05:57.030Z,33.45
2022-08-17T08:08:31.262Z,33.16
2022-08-17T08:11:09.738Z,33.56
2022-08-17T08:13:44.041Z,33.14
2022-08-17T08:16:23.444Z,33.67
2022-08-17T08:21:35.948Z,34.13
2022-08-17T08:24:15.540Z,34.31
2022-08-17T08:26:50.461Z,34.64
2022-08-17T08:29:47.452Z,34.60
2022-08-17T08:32:25.576Z,34.65
2022-08-17T08:35:16.498Z,34.49
2022-08-17T08:40:29.929Z,34.79
2022-08-17T08:43:10.485Z,34.99
2022-08-17T08:45:58.847Z,35.49
2022-08-17T08:48:58.037Z,35.64
2022-08-17T08:51:54.497Z,35.25
2022-08-17T08:54:28.391Z,35.28
2022-08-17T08:57:23.236Z,35.26
2022-08-17T08:59:57.697Z,35.41
2022-08-17T09:02:26.819Z,35.95
2022-08-17T09:05:14.792Z,36.18
2022-08-17T09:07:56.277Z,35.52
2022-08-17T09:10:31.717Z,35.65
2022-08-17T09:13:10.309Z,36.02
2022-08-17T09:15:46.700Z,36.07
2022-08-17T09:19:00.093Z,36.11
2022-08-17T09:21:18.085Z,36.15
2022-08-17T09:24:00.604Z,35.70
2022-08-17T09:26:30.529Z,35.55
2022-08-17T09:29:01.599Z,35.65
2022-08-17T09:31:48.821Z,35.84
2022-08-17T09:34:44.654Z,36.16
2022-08-17T09:37:18.455Z,35.85
2022-08-17T09:39:58.922Z,36.47
2022-08-17T09:42:26.609Z,36.27
2022-08-17T09:45:00.684Z,36.27
2022-08-17T09:47:30.867Z,36.74
2022-08-17T09:50:12.596Z,37.00
2022-08-17T09:53:01.603Z,37.00
2022-08-17T09:55:43.638Z,36.03
2022-08-17T09:58:30.684Z,35.97
2022-08-17T10:01:17.247Z,36.65
2022-08-17T10:03:57.405Z,37.32
2022-08-17T10:06:27.794Z,37.36
2022-08-17T10:08:58.349Z,37.38
2022-08-17T10:11:52.811Z,37.07
2022-08-17T10:14:43.954Z,36.45
2022-08-17T10:17:16.107Z,36.90
2022-08-17T10:20:08.188Z,37.08
2022-08-17T10:23:00.453Z,37.33
2022-08-17T10:25:55.040Z,37.36
2022-08-17T10:28:29.711Z,37.19
2022-08-17T10:34:26.808Z,37.20
2022-08-17T10:37:07.435Z,37.32
2022-08-17T10:39:51.932Z,38.01
2022-08-17T10:42:45.553Z,37.94
2022-08-17T10:45:21.011Z,38.06
2022-08-17T10:48:05.063Z,37.77
2022-08-17T10:50:50.590Z,37.63
2022-08-17T10:53:33.824Z,37.58
2022-08-17T10:56:15.559Z,37.71
2022-08-17T10:58:54.075Z,37.92
2022-08-17T11:01:35.698Z,38.57
2022-08-17T11:04:21.324Z,38.19
2022-08-17T11:07:02.555Z,38.71
2022-08-17T11:09:46.776Z,38.29
2022-08-17T11:12:16.682Z,37.63
2022-08-17T11:14:53.895Z,38.18
2022-08-17T11:17:37.038Z,38.11
2022-08-17T11:20:12.857Z,37.50
2022-08-17T11:23:04.574Z,37.39
2022-08-17T11:25:40.659Z,37.57
2022-08-17T11:28:20.621Z,37.81
2022-08-17T11:30:53.527Z,37.98
2022-08-17T11:33:38.168Z,37.80
2022-08-17T11:39:52.466Z,37.55
2022-08-17T11:42:25.734Z,37.76
2022-08-17T11:45:01.647Z,37.46
2022-08-17T11:48:25.956Z,38.01
2022-08-17T11:51:23.228Z,37.96
2022-08-17T11:56:38.528Z,37.20
2022-08-17T11:59:27.661Z,37.52
2022-08-17T12:02:07.585Z,38.05
2022-08-17T12:04:36.314Z,38.14
2022-08-17T12:07:11.597Z,37.84
2022-08-17T12:09:42.562Z,37.79
2022-08-17T12:12:23.583Z,38.10
2022-08-17T12:15:11.387Z,37.87
2022-08-17T12:17:47.527Z,38.40
2022-08-17T12:20:29.336Z,38.49
2022-08-17T12:23:06.767Z,38.62
2022-08-17T12:25:37.551Z,38.47
2022-08-17T12:28:07.714Z,38.39
2022-08-17T12:30:36.808Z,38.67
2022-08-17T12:33:04.581Z,38.59
2022-08-17T12:35:39.777Z,38.57
2022-08-17T12:38:32.046Z,38.84
2022-08-17T12:41:22.531Z,38.96
2022-08-17T12:44:19.603Z,39.30
2022-08-17T12:47:02.784Z,39.27
2022-08-17T12:49:39.589Z,39.85
2022-08-17T12:52:17.236Z,38.91
2022-08-17T12:54:54.533Z,39.32
2022-08-17T12:57:27.544Z,39.39
2022-08-17T12:59:59.127Z,39.91
2022-08-17T13:02:39.703Z,40.10
2022-08-17T13:05:09.751Z,39.65
2022-08-17T13:07:46.660Z,39.07
2022-08-17T13:10:16.615Z,38.75
2022-08-17T13:13:00.999Z,39.60
2022-08-17T13:15:44.538Z,39.76
2022-08-17T13:18:36.706Z,39.83
2022-08-17T13:21:06.789Z,39.41
2022-08-17T13:23:53.602Z,39.09
2022-08-17T13:26:30.611Z,38.90
2022-08-17T13:29:01.778Z,39.47
2022-08-17T13:34:18.857Z,39.75
2022-08-17T13:36:51.413Z,39.90
2022-08-17T13:39:23.886Z,39.69
2022-08-17T13:44:38.577Z,39.25
2022-08-17T13:47:17.017Z,39.39
2022-08-17T13:49:58.755Z,39.42
2022-08-17T13:52:41.567Z,39.54
2022-08-17T13:55:21.568Z,39.72
2022-08-17T13:57:51.084Z,39.60
2022-08-17T14:00:34.163Z,39.05
2022-08-17T14:03:08.813Z,38.98
2022-08-17T14:05:42.573Z,39.10
2022-08-17T14:08:11.041Z,38.69
2022-08-17T14:10:41.582Z,38.63
2022-08-17T14:13:15.880Z,38.73
2022-08-17T14:15:57.701Z,38.43
2022-08-17T14:18:55.768Z,38.95
2022-08-17T14:21:24.191Z,39.03
2022-08-17T14:23:54.538Z,38.67
2022-08-17T14:26:24.650Z,38.37
2022-08-17T14:28:54.589Z,38.20
2022-08-17T14:34:03.759Z,38.07
2022-08-17T14:36:33.022Z,37.98
2022-08-17T14:39:00.512Z,37.55
2022-08-17T14:41:29.133Z,37.54
2022-08-17T14:43:57.735Z,37.84
2022-08-17T14:46:27.912Z,37.41
2022-08-17T14:49:07.746Z,37.52
2022-08-17T14:51:36.549Z,37.72
2022-08-17T14:54:33.599Z,38.04
2022-08-17T14:57:32.892Z,37.74
2022-08-17T15:00:10.645Z,37.89
2022-08-17T15:02:51.068Z,37.78
2022-08-17T15:05:24.932Z,37.71
2022-08-17T15:07:56.110Z,37.48
2022-08-17T15:10:31.689Z,37.37
2022-08-17T15:13:01.596Z,37.28
2022-08-17T15:15:29.565Z,37.23
2022-08-17T15:18:01.960Z,37.21
2022-08-17T15:20:39.742Z,36.94
2022-08-17T15:23:15.531Z,36.94
2022-08-17T15:25:49.852Z,36.97
2022-08-17T15:28:17.786Z,37.10
2022-08-17T15:30:46.187Z,36.84
2022-08-17T15:33:25.757Z,36.88
2022-08-17T15:35:55.737Z,37.20
2022-08-17T15:38:25.043Z,37.14
2022-08-17T15:40:58.635Z,36.93
2022-08-17T15:43:31.286Z,37.34
2022-08-17T15:46:07.558Z,37.10
2022-08-17T15:48:42.743Z,36.61
2022-08-17T15:51:12.530Z,37.07
2022-08-17T15:53:53.869Z,36.95
2022-08-17T15:56:26.206Z,36.78
2022-08-17T15:58:56.668Z,36.92
2022-08-17T16:02:23.214Z,36.90
2022-08-17T16:04:30.401Z,36.76
2022-08-17T16:07:01.863Z,36.55
2022-08-17T16:09:30.143Z,36.61
2022-08-17T16:12:17.632Z,36.81
2022-08-17T16:14:55.838Z,36.34
2022-08-17T16:17:39.223Z,36.49
2022-08-17T16:20:19.609Z,36.58
2022-08-17T16:22:49.122Z,36.61
2022-08-17T16:25:20.983Z,36.43
2022-08-17T16:27:55.649Z,36.39
2022-08-17T16:30:31.653Z,36.43
2022-08-17T16:33:00.994Z,36.58
2022-08-17T16:35:31.638Z,36.46
2022-08-17T16:37:59.268Z,36.51
2022-08-17T16:40:31.311Z,36.45
2022-08-17T16:43:10.650Z,36.22
2022-08-17T16:45:52.108Z,36.21
2022-08-17T16:48:29.817Z,36.44
2022-08-17T16:51:04.121Z,36.39
2022-08-17T16:53:34.063Z,36.22
2022-08-17T16:56:02.152Z,36.02
2022-08-17T16:58:31.713Z,35.64
2022-08-17T17:01:00.048Z,35.82
2022-08-17T17:03:29.841Z,35.43
2022-08-17T17:06:06.371Z,35.47
2022-08-17T17:11:26.659Z,35.47
2022-08-17T17:13:58.619Z,35.00
2022-08-17T17:16:30.873Z,34.59
2022-08-17T17:19:05.816Z,34.64
2022-08-17T17:21:47.095Z,34.52
2022-08-17T17:24:28.925Z,34.48
2022-08-17T17:27:07.294Z,34.27
2022-08-17T17:29:48.163Z,34.35
2022-08-17T17:32:38.235Z,34.03
2022-08-17T17:35:14.595Z,34.02
2022-08-17T17:37:43.514Z,33.84
2022-08-17T17:40:24.883Z,33.97
2022-08-17T17:43:09.468Z,33.77
2022-08-17T17:46:27.493Z,33.52
2022-08-17T17:48:58.816Z,33.34
2022-08-17T17:52:09.417Z,33.44
2022-08-17T17:54:39.873Z,33.20
2022-08-17T18:00:04.603Z,32.88
2022-08-17T18:02:52.012Z,32.76
2022-08-17T18:08:39.072Z,32.51
2022-08-17T18:11:24.189Z,32.05
2022-08-17T18:16:56.687Z,32.09
2022-08-17T18:19:29.674Z,32.03
2022-08-17T18:22:19.904Z,32.01
2022-08-17T18:24:51.670Z,31.95
2022-08-17T18:27:23.378Z,31.77
2022-08-17T18:30:09.381Z,31.74
2022-08-17T18:32:40.081Z,31.77
2022-08-17T18:35:12.623Z,31.54
2022-08-17T18:37:52.550Z,31.53
2022-08-17T18:40:27.410Z,31.55
2022-08-17T18:42:57.907Z,31.34
2022-08-17T18:45:41.774Z,31.02
2022-08-17T18:48:20.199Z,31.03
2022-08-17T18:53:41.901Z,30.66
2022-08-17T18:56:27.652Z,30.42
2022-08-17T18:59:14.662Z,30.55
2022-08-17T19:01:53.228Z,30.13
2022-08-17T19:04:36.659Z,29.92
2022-08-17T19:07:28.778Z,30.09
2022-08-17T19:13:01.710Z,30.20
2022-08-17T19:15:45.679Z,29.81
2022-08-17T19:18:43.056Z,29.91
2022-08-17T19:21:24.758Z,29.94
2022-08-17T19:24:06.243Z,29.83
2022-08-17T19:26:54.224Z,29.87
2022-08-17T19:29:50.430Z,29.55
2022-08-17T19:37:57.692Z,29.19
2022-08-17T19:43:32.047Z,29.38
2022-08-17T19:46:06.174Z,28.96
2022-08-17T19:48:37.610Z,29.08
2022-08-17T19:51:28.597Z,28.76
2022-08-17T19:54:07.353Z,28.79
2022-08-17T19:56:42.937Z,28.90
2022-08-17T19:59:21.863Z,28.93
2022-08-17T20:04:42.651Z,28.78
2022-08-17T20:07:25.872Z,28.62
2022-08-17T20:10:04.751Z,28.68
2022-08-17T20:12:42.943Z,28.53
2022-08-17T20:17:58.361Z,28.52
2022-08-17T20:20:33.437Z,28.32
2022-08-17T20:23:11.876Z,28.29
2022-08-17T20:26:19.863Z,28.18
2022-08-17T20:29:19.866Z,27.97
2022-08-17T20:32:17.633Z,27.94
2022-08-17T20:34:45.910Z,28.02
2022-08-17T20:37:28.505Z,28.09
2022-08-17T20:39:56.481Z,27.94
2022-08-17T20:42:28.060Z,27.94
2022-08-17T20:44:58.886Z,27.89
2022-08-17T20:50:12.399Z,27.90
2022-08-17T20:52:47.043Z,27.84
2022-08-17T20:55:34.091Z,27.72
2022-08-17T20:58:23.205Z,27.62
2022-08-17T21:03:48.009Z,27.37
2022-08-17T21:06:22.855Z,27.35
2022-08-17T21:08:54.633Z,27.38
2022-08-17T21:12:01.552Z,27.24
2022-08-17T21:14:38.166Z,27.27
2022-08-17T21:17:17.825Z,26.97
2022-08-17T21:20:11.448Z,27.10
2022-08-17T21:22:43.284Z,27.04
2022-08-17T21:25:18.712Z,27.13
2022-08-17T21:27:49.449Z,26.88
2022-08-17T21:30:21.230Z,26.87
2022-08-17T21:33:08.698Z,26.91
2022-08-17T21:36:05.253Z,26.95
2022-08-17T21:38:39.974Z,26.93
2022-08-17T21:41:17.830Z,26.83
2022-08-17T21:43:46.926Z,26.60
2022-08-17T21:46:31.747Z,26.69
2022-08-17T21:49:10.867Z,26.59
2022-08-17T21:51:46.706Z,26.70
2022-08-17T21:54:20.200Z,26.59
2022-08-17T21:56:47.934Z,26.59
2022-08-17T21:59:35.722Z,26.57
2022-08-17T22:02:03.683Z,26.30
2022-08-17T22:04:39.134Z,26.23
2022-08-17T22:07:11.935Z,26.24
2022-08-17T22:09:44.973Z,26.17
2022-08-17T22:12:16.779Z,26.12
2022-08-17T22:15:06.070Z,26.18
2022-08-17T22:20:17.024Z,26.23
2022-08-17T22:23:12.896Z,26.17
2022-08-17T22:25:56.706Z,26.08
2022-08-17T22:28:54.562Z,25.92
2022-08-17T22:31:29.377Z,26.20
2022-08-17T22:34:00.361Z,26.16
2022-08-17T22:36:29.047Z,25.96
2022-08-17T22:38:58.906Z,25.98
2022-08-17T22:41:45.430Z,25.71
2022-08-17T22:44:27.257Z,25.52
2022-08-17T22:47:11.358Z,25.25
2022-08-17T22:49:53.557Z,25.68
2022-08-17T22:52:57.514Z,25.49
2022-08-17T22:55:46.725Z,25.51
2022-08-17T22:58:41.197Z,25.53
2022-08-17T23:01:26.504Z,25.59
2022-08-17T23:03:57.611Z,25.66
2022-08-17T23:06:27.175Z,25.64
2022-08-17T23:08:56.324Z,25.46
2022-08-17T23:11:39.441Z,25.40
2022-08-17T23:14:16.034Z,25.61
2022-08-17T23:16:54.046Z,25.51
2022-08-17T23:19:21.772Z,25.52
2022-08-17T23:21:50.487Z,25.41
2022-08-17T23:24:20.411Z,25.34
2022-08-17T23:26:48.538Z,25.40
2022-08-17T23:29:15.823Z,25.34
2022-08-17T23:31:43.200Z,24.71
2022-08-17T23:34:11.822Z,24.33
2022-08-17T23:36:39.335Z,24.91
2022-08-17T23:39:08.737Z,24.63
2022-08-17T23:41:38.759Z,24.52
2022-08-17T23:44:06.330Z,24.39
2022-08-17T23:46:34.673Z,24.52
2022-08-17T23:49:03.406Z,24.54
2022-08-17T23:51:34.652Z,24.37
2022-08-17T23:54:07.957Z,24.69
2022-08-17T23:56:42.118Z,24.76
2022-08-17T23:59:09.447Z,24.81
